createdAt,value
2023-04-02T00:01:02.928Z,92085.44
2023-04-02T00:03:44.980Z,92090.69
2023-04-02T00:06:33.174Z,92127.88
2023-04-02T00:09:23.281Z,92167.75
2023-04-02T00:11:54.793Z,92209.84
2023-04-02T00:14:26.333Z,92222.97
2023-04-02T00:16:53.662Z,92295.25
2023-04-02T00:19:38.948Z,92345.16
2023-04-02T00:22:12.892Z,92364.81
2023-04-02T00:24:39.828Z,92432.88
2023-04-02T00:27:06.930Z,92471.25
2023-04-02T00:29:33.260Z,92521.84
2023-04-02T00:31:59.846Z,92566.50
2023-04-02T00:34:33.905Z,92590.59
2023-04-02T00:37:01.806Z,92614.19
2023-04-02T00:39:34.533Z,92650.94
2023-04-02T00:42:07.612Z,92696.06
2023-04-02T00:44:38.707Z,92717.03
2023-04-02T00:47:14.985Z,92752.19
2023-04-02T00:49:46.068Z,92777.31
2023-04-02T00:52:17.411Z,92803.53
2023-04-02T00:55:03.995Z,92826.84
2023-04-02T00:57:31.024Z,92848.59
2023-04-02T01:00:00.023Z,92882.38
2023-04-02T01:02:28.339Z,92900.47
2023-04-02T01:04:56.892Z,92922.44
2023-04-02T01:07:29.568Z,92903.31
2023-04-02T01:10:14.829Z,92935.00
2023-04-02T01:13:09.236Z,92936.06
2023-04-02T01:15:43.814Z,92995.28
2023-04-02T01:18:27.055Z,93007.31
2023-04-02T01:20:56.760Z,93037.66
2023-04-02T01:23:28.107Z,93072.44
2023-04-02T01:26:17.794Z,93071.94
2023-04-02T01:28:53.205Z,93067.69
2023-04-02T01:31:19.757Z,93096.75
2023-04-02T01:33:46.915Z,93102.78
2023-04-02T01:36:26.244Z,93113.28
2023-04-02T01:39:05.358Z,93145.91
2023-04-02T01:41:38.159Z,93157.47
2023-04-02T01:44:09.417Z,93156.97
2023-04-02T01:46:45.086Z,93181.03
2023-04-02T01:49:14.078Z,93199.75
2023-04-02T01:51:43.096Z,93218.94
2023-04-02T01:54:10.441Z,93226.19
2023-04-02T01:56:36.751Z,93258.59
2023-04-02T01:59:05.959Z,93270.88
2023-04-02T02:01:36.114Z,93288.13
2023-04-02T02:04:02.608Z,93302.19
2023-04-02T02:06:29.050Z,93310.59
2023-04-02T02:08:55.609Z,93309.56
2023-04-02T02:11:27.613Z,93325.22
2023-04-02T02:13:57.793Z,93338.78
2023-04-02T02:16:27.338Z,93335.16
2023-04-02T02:18:56.219Z,93389.88
2023-04-02T02:21:28.408Z,93385.81
2023-04-02T02:23:54.979Z,93417.06
2023-04-02T02:26:25.269Z,93441.50
2023-04-02T02:28:58.304Z,93443.56
2023-04-02T02:31:29.464Z,93444.44
2023-04-02T02:33:58.685Z,93434.53
2023-04-02T02:36:33.476Z,93432.69
2023-04-02T02:39:16.398Z,93446.50
2023-04-02T02:41:45.008Z,93437.38
2023-04-02T02:44:19.847Z,93458.38
2023-04-02T02:47:13.557Z,93450.38
2023-04-02T02:49:42.085Z,93453.25
2023-04-02T02:52:08.493Z,93451.81
2023-04-02T02:54:36.538Z,93467.81
2023-04-02T02:57:06.044Z,93469.25
2023-04-02T02:59:33.280Z,93476.63
2023-04-02T03:02:02.052Z,93500.47
2023-04-02T03:04:30.758Z,93527.56
2023-04-02T03:06:58.307Z,93534.66
2023-04-02T03:09:24.647Z,93543.75
2023-04-02T03:11:54.712Z,93570.38
2023-04-02T03:14:40.031Z,93572.25
2023-04-02T03:17:17.510Z,93586.53
2023-04-02T03:19:46.794Z,93613.38
2023-04-02T03:22:23.416Z,93647.97
2023-04-02T03:24:59.465Z,93671.75
2023-04-02T03:27:32.831Z,93681.31
2023-04-02T03:29:59.195Z,93698.56
2023-04-02T03:32:29.461Z,93700.75
2023-04-02T03:35:16.198Z,93738.72
2023-04-02T03:37:44.339Z,93746.69
2023-04-02T03:40:17.395Z,93768.28
2023-04-02T03:42:46.865Z,93774.97
2023-04-02T03:45:24.061Z,93771.69
2023-04-02T03:48:01.373Z,93781.47
2023-04-02T03:50:31.750Z,93721.66
2023-04-02T03:53:05.080Z,93805.66
2023-04-02T03:55:39.801Z,93823.84
2023-04-02T03:58:06.386Z,93839.50
2023-04-02T04:00:48.140Z,93850.53
2023-04-02T04:03:16.322Z,93856.63
2023-04-02T04:05:51.110Z,93858.38
2023-04-02T04:08:23.532Z,93895.72
2023-04-02T04:10:56.220Z,93921.16
2023-04-02T04:13:29.085Z,93921.81
2023-04-02T04:15:59.194Z,93942.34
2023-04-02T04:18:29.838Z,93948.16
2023-04-02T04:20:58.545Z,93961.97
2023-04-02T04:23:30.699Z,93953.78
2023-04-02T04:25:58.858Z,93992.56
2023-04-02T04:28:30.454Z,93990.09
2023-04-02T04:31:01.622Z,94003.03
2023-04-02T04:33:39.692Z,94016.50
2023-04-02T04:36:06.615Z,94030.00
2023-04-02T04:38:34.883Z,94041.47
2023-04-02T04:41:06.783Z,94036.41
2023-04-02T04:43:54.728Z,94045.66
2023-04-02T04:46:27.084Z,94045.25
2023-04-02T04:48:53.467Z,94067.44
2023-04-02T04:51:24.007Z,94079.53
2023-04-02T04:53:52.879Z,94073.47
2023-04-02T04:56:24.025Z,94078.31
2023-04-02T04:58:57.410Z,94089.84
2023-04-02T05:01:53.004Z,94087.56
2023-04-02T05:04:23.985Z,94088.38
2023-04-02T05:06:50.950Z,94106.72
2023-04-02T05:09:24.335Z,94109.34
2023-04-02T05:11:54.876Z,94132.69
2023-04-02T05:14:40.124Z,94119.63
2023-04-02T05:17:26.793Z,94130.22
2023-04-02T05:20:05.665Z,94153.75
2023-04-02T05:22:51.055Z,94162.41
2023-04-02T05:25:23.729Z,94170.66
2023-04-02T05:28:07.579Z,94179.28
2023-04-02T05:30:39.814Z,94194.16
2023-04-02T05:33:14.757Z,94208.22
2023-04-02T05:35:43.777Z,94208.59
2023-04-02T05:38:19.457Z,94212.41
2023-04-02T05:40:46.657Z,94234.34
2023-04-02T05:43:16.711Z,94241.38
2023-04-02T05:45:45.275Z,94246.34
2023-04-02T05:48:17.750Z,94268.50
2023-04-02T05:50:49.177Z,94276.09
2023-04-02T05:53:37.790Z,94298.78
2023-04-02T05:56:16.726Z,94313.06
2023-04-02T05:58:48.113Z,94341.16
2023-04-02T06:01:33.754Z,94353.44
2023-04-02T06:04:22.641Z,94372.94
2023-04-02T06:06:52.454Z,94386.97
2023-04-02T06:09:36.547Z,94389.75
2023-04-02T06:12:24.925Z,94412.06
2023-04-02T06:14:51.434Z,94443.41
2023-04-02T06:17:18.684Z,94473.31
2023-04-02T06:19:45.996Z,94472.91
2023-04-02T06:22:35.649Z,94494.78
2023-04-02T06:25:19.773Z,94511.47
2023-04-02T06:27:47.674Z,94526.31
2023-04-02T06:30:17.592Z,94540.78
2023-04-02T06:32:44.536Z,94574.50
2023-04-02T06:35:14.841Z,94596.00
2023-04-02T06:37:43.434Z,94608.63
2023-04-02T06:40:28.193Z,94636.72
2023-04-02T06:42:59.660Z,94640.78
2023-04-02T06:45:28.514Z,94665.84
2023-04-02T06:47:57.193Z,94682.31
2023-04-02T06:50:46.844Z,94683.28
2023-04-02T06:53:19.783Z,94691.72
2023-04-02T06:56:01.197Z,94676.31
2023-04-02T06:58:27.560Z,94713.41
2023-04-02T07:00:54.194Z,94729.88
2023-04-02T07:03:24.905Z,94729.88
2023-04-02T07:05:51.614Z,94752.38
2023-04-02T07:08:20.475Z,94756.81
2023-04-02T07:10:46.925Z,94769.06
2023-04-02T07:13:15.144Z,94790.75
2023-04-02T07:15:41.501Z,94809.03
2023-04-02T07:18:15.453Z,94816.22
2023-04-02T07:20:43.439Z,94811.63
2023-04-02T07:23:10.405Z,94827.53
2023-04-02T07:25:37.018Z,94847.56
2023-04-02T07:28:04.831Z,94879.09
2023-04-02T07:30:31.151Z,94897.78
2023-04-02T07:32:57.559Z,94922.84
2023-04-02T07:35:23.949Z,94932.69
2023-04-02T07:37:50.544Z,94948.13
2023-04-02T07:40:18.389Z,94952.00
2023-04-02T07:42:45.323Z,94967.84
2023-04-02T07:45:14.617Z,94994.81
2023-04-02T07:47:48.101Z,94986.47
2023-04-02T07:50:14.710Z,94988.47
2023-04-02T07:52:45.318Z,95003.47
2023-04-02T07:55:13.013Z,94999.91
2023-04-02T07:58:00.000Z,95004.31
2023-04-02T08:00:27.532Z,95008.38
2023-04-02T08:02:54.731Z,94998.25
2023-04-02T08:05:22.486Z,94991.25
2023-04-02T08:07:53.419Z,95002.84
2023-04-02T08:10:19.793Z,95017.84
2023-04-02T08:12:46.281Z,95019.22
2023-04-02T08:15:18.015Z,94998.00
2023-04-02T08:17:44.659Z,94998.09
2023-04-02T08:20:15.492Z,94992.78
2023-04-02T08:22:41.821Z,94988.31
2023-04-02T08:25:09.021Z,94972.13
2023-04-02T08:27:35.592Z,94975.00
2023-04-02T08:30:02.845Z,94981.16
2023-04-02T08:32:32.813Z,94983.16
2023-04-02T08:34:59.171Z,94970.53
2023-04-02T08:37:25.653Z,94950.00
2023-04-02T08:39:51.953Z,94958.72
2023-04-02T08:42:24.319Z,94955.34
2023-04-02T08:45:23.056Z,94973.31
2023-04-02T08:47:53.489Z,94951.50
2023-04-02T08:50:28.633Z,94964.94
2023-04-02T08:52:59.298Z,94943.53
2023-04-02T08:55:32.976Z,94963.72
2023-04-02T08:58:07.426Z,94960.59
2023-04-02T09:00:39.588Z,94981.97
2023-04-02T09:03:10.064Z,94983.69
2023-04-02T09:05:41.194Z,94981.31
2023-04-02T09:08:26.401Z,95006.91
2023-04-02T09:11:08.064Z,95018.16
2023-04-02T09:13:37.566Z,95042.59
2023-04-02T09:16:08.295Z,95075.81
2023-04-02T09:18:35.300Z,95073.06
2023-04-02T09:21:17.338Z,95083.50
2023-04-02T09:23:43.776Z,95075.97
2023-04-02T09:26:25.127Z,95114.94
2023-04-02T09:28:52.499Z,95111.97
2023-04-02T09:31:22.466Z,95127.53
2023-04-02T09:33:49.819Z,95146.16
2023-04-02T09:36:19.344Z,95148.84
2023-04-02T09:38:58.390Z,95158.28
2023-04-02T09:41:27.320Z,95144.13
2023-04-02T09:44:11.128Z,95186.31
2023-04-02T09:46:37.466Z,95185.75
2023-04-02T09:49:04.008Z,95172.22
2023-04-02T09:51:34.717Z,95182.66
2023-04-02T09:54:07.411Z,95209.28
2023-04-02T09:56:38.134Z,95192.88
2023-04-02T09:59:15.318Z,95227.75
2023-04-02T10:01:44.525Z,95252.75
2023-04-02T10:04:30.040Z,95292.09
2023-04-02T10:06:57.901Z,95306.59
2023-04-02T10:09:34.150Z,95331.06
2023-04-02T10:12:02.718Z,95348.59
2023-04-02T10:14:33.051Z,95360.75
2023-04-02T10:17:08.568Z,95371.56
2023-04-02T10:19:37.926Z,95395.81
2023-04-02T10:22:12.270Z,95398.09
2023-04-02T10:24:39.427Z,95435.53
2023-04-02T10:27:07.465Z,95460.28
2023-04-02T10:29:41.573Z,95481.34
2023-04-02T10:32:20.487Z,95503.50
2023-04-02T10:35:03.515Z,95517.59
2023-04-02T10:37:35.862Z,95539.03
2023-04-02T10:40:20.811Z,95534.97
2023-04-02T10:42:51.965Z,95544.50
2023-04-02T10:45:41.997Z,95555.50
2023-04-02T10:48:20.582Z,95605.13
2023-04-02T10:50:53.775Z,95618.19
2023-04-02T10:53:25.340Z,95645.75
2023-04-02T10:56:04.804Z,95681.50
2023-04-02T10:58:34.869Z,95719.88
2023-04-02T11:01:09.314Z,95780.00
2023-04-02T11:03:48.832Z,95830.69
2023-04-02T11:06:21.811Z,95845.31
2023-04-02T11:08:50.602Z,95871.44
2023-04-02T11:11:19.956Z,95912.56
2023-04-02T11:13:58.307Z,95921.00
2023-04-02T11:16:25.397Z,95939.56
2023-04-02T11:19:10.841Z,95996.41
2023-04-02T11:21:44.802Z,96020.81
2023-04-02T11:24:27.622Z,96036.91
2023-04-02T11:26:54.224Z,96105.44
2023-04-02T11:29:26.194Z,96181.63
2023-04-02T11:32:12.655Z,96229.97
2023-04-02T11:34:41.906Z,96264.78
2023-04-02T11:37:09.642Z,96348.59
2023-04-02T11:39:47.840Z,96408.56
2023-04-02T11:42:26.457Z,96469.38
2023-04-02T11:44:53.411Z,96468.16
2023-04-02T11:47:21.781Z,96512.28
2023-04-02T11:49:54.462Z,96563.78
2023-04-02T11:52:56.845Z,96597.81
2023-04-02T11:55:27.939Z,96660.94
2023-04-02T11:58:12.893Z,96713.28
2023-04-02T12:00:45.314Z,96741.53
2023-04-02T12:03:31.385Z,96773.19
2023-04-02T12:06:04.399Z,96791.81
2023-04-02T12:08:47.515Z,96794.38
2023-04-02T12:11:30.829Z,96803.50
2023-04-02T12:13:58.709Z,96824.66
2023-04-02T12:16:31.241Z,96818.00
2023-04-02T12:18:58.194Z,96832.66
2023-04-02T12:21:29.254Z,96792.28
2023-04-02T12:23:57.640Z,96819.00
2023-04-02T12:26:27.753Z,96879.44
2023-04-02T12:28:54.325Z,96896.59
2023-04-02T12:31:22.781Z,96889.47
2023-04-02T12:33:51.853Z,96898.06
2023-04-02T12:36:20.544Z,96935.22
2023-04-02T12:38:48.427Z,96947.25
2023-04-02T12:41:30.256Z,96958.28
2023-04-02T12:44:00.832Z,96942.09
2023-04-02T12:46:27.774Z,96959.13
2023-04-02T12:48:55.579Z,96927.91
2023-04-02T12:51:21.935Z,96885.38
2023-04-02T12:53:50.509Z,96901.84
2023-04-02T12:56:21.661Z,96908.94
2023-04-02T12:58:54.929Z,96954.34
2023-04-02T13:01:23.885Z,96977.53
2023-04-02T13:04:04.903Z,97037.22
2023-04-02T13:06:32.376Z,97058.63
2023-04-02T13:09:00.127Z,97069.59
2023-04-02T13:11:42.087Z,97072.75
2023-04-02T13:14:16.689Z,97073.41
2023-04-02T13:16:43.313Z,97045.06
2023-04-02T13:19:29.986Z,97069.25
2023-04-02T13:21:57.300Z,97038.56
2023-04-02T13:24:25.250Z,97024.91
2023-04-02T13:26:54.903Z,97042.59
2023-04-02T13:29:24.069Z,97103.31
2023-04-02T13:31:51.174Z,97096.94
2023-04-02T13:34:18.725Z,97083.16
2023-04-02T13:36:45.731Z,97121.97
2023-04-02T13:39:12.372Z,97080.53
2023-04-02T13:41:41.897Z,97085.47
2023-04-02T13:44:14.752Z,97071.03
2023-04-02T13:46:41.062Z,97089.16
2023-04-02T13:49:14.180Z,97144.28
2023-04-02T13:51:52.196Z,97167.03
2023-04-02T13:54:31.463Z,97188.16
2023-04-02T13:56:57.897Z,97275.44
2023-04-02T13:59:24.405Z,97323.09
2023-04-02T14:01:51.715Z,97373.53
2023-04-02T14:04:21.129Z,97437.47
2023-04-02T14:06:59.542Z,97458.44
2023-04-02T14:09:37.358Z,97459.09
2023-04-02T14:12:20.931Z,97453.16
2023-04-02T14:15:03.166Z,97456.75
2023-04-02T14:17:37.272Z,97449.91
2023-04-02T14:20:22.569Z,97457.06
2023-04-02T14:23:08.233Z,97440.94
2023-04-02T14:25:34.942Z,97432.38
2023-04-02T14:28:10.788Z,97436.13
2023-04-02T14:30:37.371Z,97400.94
2023-04-02T14:33:22.417Z,97387.03
2023-04-02T14:35:59.515Z,97372.69
2023-04-02T14:38:43.352Z,97377.50
2023-04-02T14:41:32.283Z,97383.69
2023-04-02T14:44:02.065Z,97373.31
2023-04-02T14:46:30.471Z,97361.00
2023-04-02T14:49:09.035Z,97375.94
2023-04-02T14:52:03.982Z,97406.00
2023-04-02T14:54:50.178Z,97463.63
2023-04-02T14:57:23.253Z,97472.19
2023-04-02T15:00:01.843Z,97467.50
2023-04-02T15:02:39.243Z,97460.28
2023-04-02T15:05:16.700Z,97469.34
2023-04-02T15:07:48.393Z,97442.78
2023-04-02T15:10:36.310Z,97456.88
2023-04-02T15:13:07.390Z,97488.53
2023-04-02T15:15:40.438Z,97514.72
2023-04-02T15:18:12.940Z,97537.47
2023-04-02T15:20:59.497Z,97600.97
2023-04-02T15:23:34.353Z,97609.75
2023-04-02T15:26:21.887Z,97708.59
2023-04-02T15:28:54.479Z,97756.47
2023-04-02T15:31:22.920Z,97747.34
2023-04-02T15:33:54.426Z,97798.72
2023-04-02T15:36:21.476Z,97900.72
2023-04-02T15:38:52.098Z,97947.13
2023-04-02T15:41:32.095Z,97955.84
2023-04-02T15:44:00.124Z,97971.00
2023-04-02T15:46:45.467Z,97933.19
2023-04-02T15:49:25.923Z,97933.78
2023-04-02T15:52:08.075Z,97911.88
2023-04-02T15:54:45.994Z,97970.56
2023-04-02T15:57:44.998Z,97949.03
2023-04-02T16:00:17.244Z,97978.31
2023-04-02T16:03:03.044Z,98052.03
2023-04-02T16:05:32.489Z,98069.97
2023-04-02T16:08:07.166Z,98117.34
2023-04-02T16:10:42.494Z,98153.56
2023-04-02T16:13:24.111Z,98146.03
2023-04-02T16:15:53.400Z,98139.78
2023-04-02T16:18:29.017Z,98130.97
2023-04-02T16:20:57.298Z,98128.16
2023-04-02T16:23:30.460Z,98141.38
2023-04-02T16:26:23.340Z,98168.19
2023-04-02T16:28:52.751Z,98181.50
2023-04-02T16:31:31.272Z,98183.50
2023-04-02T16:34:05.894Z,98238.06
2023-04-02T16:36:39.009Z,98329.97
2023-04-02T16:39:31.775Z,98379.94
2023-04-02T16:41:58.113Z,98441.66
2023-04-02T16:44:36.524Z,98451.81
2023-04-02T16:47:18.513Z,98454.31
2023-04-02T16:49:56.229Z,98451.91
2023-04-02T16:52:41.106Z,98448.59
2023-04-02T16:55:23.478Z,98444.06
2023-04-02T16:58:09.030Z,98438.09
2023-04-02T17:00:58.874Z,98463.72
2023-04-02T17:03:37.374Z,98467.66
2023-04-02T17:06:09.503Z,98479.22
2023-04-02T17:08:41.984Z,98476.72
2023-04-02T17:11:08.314Z,98487.91
2023-04-02T17:13:37.765Z,98459.56
2023-04-02T17:16:10.505Z,98456.22
2023-04-02T17:18:37.586Z,98459.91
2023-04-02T17:21:06.170Z,98451.22
2023-04-02T17:23:49.429Z,98459.56
2023-04-02T17:26:24.317Z,98450.03
2023-04-02T17:31:35.758Z,98374.47
2023-04-02T17:34:10.800Z,98382.56
2023-04-02T17:39:17.499Z,98339.06
2023-04-02T17:41:49.846Z,98343.00
2023-04-02T17:44:41.147Z,98318.94
2023-04-02T17:47:19.432Z,98322.97
2023-04-02T17:50:04.792Z,98310.81
2023-04-02T17:52:36.019Z,98326.06
2023-04-02T17:55:05.197Z,98338.72
2023-04-02T17:57:34.782Z,98344.41
2023-04-02T18:00:10.468Z,98335.59
2023-04-02T18:02:48.901Z,98358.59
2023-04-02T18:05:18.206Z,98335.59
2023-04-02T18:07:58.169Z,98318.94
2023-04-02T18:10:33.845Z,98322.28
2023-04-02T18:13:10.558Z,98298.91
2023-04-02T18:15:51.144Z,98259.09
2023-04-02T18:18:36.130Z,98241.66
2023-04-02T18:21:05.556Z,98222.22
2023-04-02T18:23:54.553Z,98216.91
2023-04-02T18:26:39.941Z,98203.81
2023-04-02T18:29:15.787Z,98186.78
2023-04-02T18:32:01.078Z,98196.19
2023-04-02T18:34:30.419Z,98234.97
2023-04-02T18:37:03.728Z,98275.00
2023-04-02T18:39:33.149Z,98275.31
2023-04-02T18:42:13.810Z,98264.50
2023-04-02T18:44:45.162Z,98257.44
2023-04-02T18:47:11.724Z,98272.94
2023-04-02T18:49:40.578Z,98263.19
2023-04-02T18:52:14.288Z,98261.28
2023-04-02T18:54:45.764Z,98197.28
2023-04-02T18:57:17.509Z,98170.22
2023-04-02T18:59:57.422Z,98162.56
2023-04-02T19:02:44.518Z,98191.44
2023-04-02T19:05:20.215Z,98179.31
2023-04-02T19:07:48.430Z,98174.38
2023-04-02T19:10:23.717Z,98169.97
2023-04-02T19:12:50.280Z,98141.59
2023-04-02T19:15:18.741Z,98153.28
2023-04-02T19:17:56.131Z,98127.28
2023-04-02T19:20:25.818Z,98110.38
2023-04-02T19:23:10.950Z,98130.00
2023-04-02T19:25:40.411Z,98134.09
2023-04-02T19:28:06.842Z,98157.06
2023-04-02T19:30:48.770Z,98181.13
2023-04-02T19:33:19.159Z,98215.59
2023-04-02T19:35:55.862Z,98231.63
2023-04-02T19:38:45.343Z,98263.09
2023-04-02T19:41:27.215Z,98241.88
2023-04-02T19:43:54.816Z,98243.34
2023-04-02T19:46:22.021Z,98281.00
2023-04-02T19:48:51.327Z,98271.69
2023-04-02T19:51:17.875Z,98297.09
2023-04-02T19:53:44.399Z,98320.81
2023-04-02T19:56:10.880Z,98311.91
2023-04-02T19:58:37.310Z,98324.88
2023-04-02T20:01:04.106Z,98336.78
2023-04-02T20:03:31.472Z,98371.84
2023-04-02T20:05:59.803Z,98401.53
2023-04-02T20:08:27.229Z,98421.53
2023-04-02T20:10:53.614Z,98465.28
2023-04-02T20:13:20.023Z,98454.78
2023-04-02T20:15:47.288Z,98465.41
2023-04-02T20:18:14.099Z,98451.81
2023-04-02T20:20:40.625Z,98440.72
2023-04-02T20:23:06.957Z,98411.66
2023-04-02T20:25:33.338Z,98411.28
2023-04-02T20:28:00.963Z,98428.09
2023-04-02T20:30:27.302Z,98393.91
2023-04-02T20:32:55.628Z,98351.69
2023-04-02T20:35:22.122Z,98363.28
2023-04-02T20:37:48.708Z,98359.22
2023-04-02T20:40:15.397Z,98370.78
2023-04-02T20:42:41.749Z,98352.78
2023-04-02T20:45:09.263Z,98351.13
2023-04-02T20:47:35.720Z,98344.94
2023-04-02T20:50:02.325Z,98322.28
2023-04-02T20:52:30.206Z,98327.53
2023-04-02T20:54:57.371Z,98322.50
2023-04-02T20:57:25.593Z,98332.44
2023-04-02T20:59:52.035Z,98322.06
2023-04-02T21:02:18.369Z,98351.03
2023-04-02T21:04:44.803Z,98342.56
2023-04-02T21:07:11.368Z,98354.72
2023-04-02T21:09:37.844Z,98362.34
2023-04-02T21:12:04.345Z,98352.09
2023-04-02T21:14:35.752Z,98350.88
2023-04-02T21:17:02.135Z,98313.84
2023-04-02T21:19:28.672Z,98326.22
2023-04-02T21:21:55.158Z,98299.22
2023-04-02T21:24:21.554Z,98278.47
2023-04-02T21:26:48.124Z,98264.66
2023-04-02T21:29:14.643Z,98254.91
2023-04-02T21:31:41.378Z,98267.06
2023-04-02T21:34:09.262Z,98279.09
2023-04-02T21:36:36.912Z,98266.94
2023-04-02T21:39:05.684Z,98266.09
2023-04-02T21:41:36.444Z,98268.94
2023-04-02T21:44:03.730Z,98262.28
2023-04-02T21:46:31.759Z,98252.75
2023-04-02T21:48:59.196Z,98249.66
2023-04-02T21:51:27.180Z,98270.88
2023-04-02T21:53:54.517Z,98275.19
2023-04-02T21:56:22.833Z,98271.56
2023-04-02T21:58:50.221Z,98322.81
2023-04-02T22:01:26.645Z,98294.44
2023-04-02T22:03:54.715Z,98331.63
2023-04-02T22:06:24.693Z,98374.84
2023-04-02T22:09:01.229Z,98396.59
2023-04-02T22:11:29.572Z,98407.81
2023-04-02T22:13:56.172Z,98376.25
2023-04-02T22:16:24.110Z,98370.19
2023-04-02T22:18:51.555Z,98410.16
2023-04-02T22:21:18.421Z,98442.25
2023-04-02T22:23:45.614Z,98426.81
2023-04-02T22:26:12.861Z,98442.19
2023-04-02T22:28:39.318Z,98452.38
2023-04-02T22:31:11.636Z,98470.66
2023-04-02T22:33:38.684Z,98473.97
2023-04-02T22:36:05.542Z,98455.06
2023-04-02T22:38:32.600Z,98466.53
2023-04-02T22:41:06.692Z,98452.81
2023-04-02T22:43:33.273Z,98457.69
2023-04-02T22:46:00.174Z,98442.78
2023-04-02T22:48:31.622Z,98451.19
2023-04-02T22:50:58.036Z,98464.69
2023-04-02T22:53:24.701Z,98473.84
2023-04-02T22:55:52.370Z,98474.66
2023-04-02T22:58:19.837Z,98462.53
2023-04-02T23:00:46.801Z,98473.63
2023-04-02T23:03:13.527Z,98494.34
2023-04-02T23:05:40.516Z,98496.25
2023-04-02T23:08:07.051Z,98488.50
2023-04-02T23:10:33.606Z,98476.59
2023-04-02T23:13:00.286Z,98481.91
2023-04-02T23:15:26.678Z,98464.47
2023-04-02T23:17:53.291Z,98479.22
2023-04-02T23:20:19.961Z,98463.75
2023-04-02T23:22:46.434Z,98437.81
2023-04-02T23:25:12.825Z,98469.06
2023-04-02T23:27:39.374Z,98454.56
2023-04-02T23:30:06.527Z,98431.97
2023-04-02T23:32:33.419Z,98430.00
2023-04-02T23:34:59.841Z,98423.13
2023-04-02T23:37:26.202Z,98398.63
2023-04-02T23:39:52.770Z,98379.25
2023-04-02T23:42:19.282Z,98339.56
2023-04-02T23:44:46.108Z,98299.38
2023-04-02T23:47:12.683Z,98289.38
2023-04-02T23:49:39.248Z,98295.91
2023-04-02T23:52:05.905Z,98272.50
2023-04-02T23:54:32.252Z,98240.13
2023-04-02T23:56:58.724Z,98226.56
2023-04-02T23:59:25.111Z,98194.81
